Time;durP1;ratioP1;P1;durP2;ratioP2;P2;SDS_P1;SDS_P2;PMS_P1;PMS_P2;Temp;Humidity;BMP_temperature;BMP_pressure;BME280_temperature;BME280_humidity;BME280_pressure;Samples;Min_cycle;Max_cycle;Signal;HPM_P1;HPM_P2
2022/08/07 00:00:19;;;;;;;0.55;0.55;;;;;;;;;;7384901;19;20003;-63
2022/08/07 00:02:45;;;;;;;0.28;0.28;;;;;;;;;;7385259;19;20006;-63
2022/08/07 00:05:10;;;;;;;0.75;0.52;;;;;;;;;;7386351;19;20016;-63
2022/08/07 00:07:38;;;;;;;0.43;0.43;;;;;;;;;;7388060;19;19999;-65
2022/08/07 00:10:04;;;;;;;0.50;0.50;;;;;;;;;;7387522;19;20037;-64
2022/08/07 00:12:30;;;;;;;0.70;0.70;;;;;;;;;;7389316;19;20377;-64
2022/08/07 00:14:56;;;;;;;0.60;0.60;;;;;;;;;;7389327;19;20038;-64
2022/08/07 00:17:21;;;;;;;0.63;0.50;;;;;;;;;;7389730;19;19994;-64
2022/08/07 00:19:46;;;;;;;0.30;0.30;;;;;;;;;;7386869;19;20005;-63
2022/08/07 00:22:12;;;;;;;0.52;0.52;;;;;;;;;;7386757;19;20377;-64
2022/08/07 00:24:37;;;;;;;0.32;0.32;;;;;;;;;;7388374;19;20418;-64
2022/08/07 00:27:03;;;;;;;0.60;0.60;;;;;;;;;;7388893;19;20460;-64
2022/08/07 00:29:28;;;;;;;1.27;0.60;;;;;;;;;;7388589;19;20010;-64
2022/08/07 00:31:55;;;;;;;0.50;0.50;;;;;;;;;;7386141;19;20010;-64
2022/08/07 00:34:21;;;;;;;0.45;0.45;;;;;;;;;;7386568;19;20002;-64
2022/08/07 00:36:46;;;;;;;0.47;0.43;;;;;;;;;;7388006;19;20340;-64
2022/08/07 00:39:12;;;;;;;2.13;0.35;;;;;;;;;;7387236;19;20003;-64
2022/08/07 00:41:38;;;;;;;0.35;0.35;;;;;;;;;;7387623;19;20041;-63
2022/08/07 00:44:04;;;;;;;1.13;0.63;;;;;;;;;;7385260;19;20007;-63
2022/08/07 00:46:30;;;;;;;0.68;0.60;;;;;;;;;;7383944;19;20006;-63
2022/08/07 00:49:00;;;;;;;0.38;0.38;;;;;;;;;;7387670;19;20002;-63
2022/08/07 00:51:26;;;;;;;1.05;0.70;;;;;;;;;;7386986;19;20387;-62
2022/08/07 00:53:52;;;;;;;0.40;0.40;;;;;;;;;;7383347;19;19995;-64
2022/08/07 00:56:17;;;;;;;1.02;0.60;;;;;;;;;;7381418;19;20013;-63
2022/08/07 00:58:43;;;;;;;0.60;0.43;;;;;;;;;;7381754;19;20010;-63
2022/08/07 01:01:09;;;;;;;1.25;0.60;;;;;;;;;;7381783;19;20003;-63
2022/08/07 01:03:34;;;;;;;1.50;0.70;;;;;;;;;;7383270;19;20010;-63
2022/08/07 01:06:01;;;;;;;0.20;0.20;;;;;;;;;;7381058;19;20003;-65
2022/08/07 01:08:27;;;;;;;0.30;0.30;;;;;;;;;;7385238;19;20484;-63
2022/08/07 01:10:53;;;;;;;0.50;0.50;;;;;;;;;;7386640;19;20003;-63
2022/08/07 01:13:19;;;;;;;1.40;0.60;;;;;;;;;;7387316;19;20009;-63
2022/08/07 01:15:45;;;;;;;0.47;0.47;;;;;;;;;;7386510;19;20070;-62
2022/08/07 01:18:12;;;;;;;0.40;0.40;;;;;;;;;;7385126;19;20053;-64
2022/08/07 01:20:44;;;;;;;0.75;0.50;;;;;;;;;;7386812;19;19998;-64
2022/08/07 01:23:10;;;;;;;1.33;0.50;;;;;;;;;;7387095;19;20006;-64
2022/08/07 01:25:36;;;;;;;1.20;0.65;;;;;;;;;;7385776;19;20018;-64
2022/08/07 01:28:02;;;;;;;0.47;0.47;;;;;;;;;;7387350;19;20368;-64
2022/08/07 01:30:29;;;;;;;1.80;0.60;;;;;;;;;;7386506;19;20001;-64
2022/08/07 01:32:55;;;;;;;1.80;1.05;;;;;;;;;;7385449;19;20058;-64
2022/08/07 01:35:20;;;;;;;1.85;0.45;;;;;;;;;;7384493;19;20015;-64
2022/08/07 01:37:46;;;;;;;0.22;0.22;;;;;;;;;;7387314;19;19999;-64
2022/08/07 01:40:13;;;;;;;0.50;0.50;;;;;;;;;;7383788;19;20725;-64
2022/08/07 01:42:38;;;;;;;0.35;0.35;;;;;;;;;;7386871;19;20003;-64
2022/08/07 01:45:05;;;;;;;0.43;0.40;;;;;;;;;;7386021;19;20317;-64
2022/08/07 01:47:30;;;;;;;1.15;0.40;;;;;;;;;;7386356;19;20468;-64
2022/08/07 01:49:55;;;;;;;0.30;0.30;;;;;;;;;;7386320;19;20071;-64
2022/08/07 01:52:24;;;;;;;0.22;0.22;;;;;;;;;;7385801;19;20007;-64
2022/08/07 01:54:53;;;;;;;0.35;0.35;;;;;;;;;;7385720;19;20370;-64
2022/08/07 01:57:27;;;;;;;0.75;0.60;;;;;;;;;;7386156;19;20330;-64
2022/08/07 02:00:01;;;;;;;0.50;0.50;;;;;;;;;;7392013;19;20006;-64
2022/08/07 02:02:40;;;;;;;0.17;0.17;;;;;;;;;;7391123;19;20370;-64
2022/08/07 02:05:09;;;;;;;0.38;0.38;;;;;;;;;;7392107;19;20429;-65
2022/08/07 02:07:41;;;;;;;0.50;0.50;;;;;;;;;;7396416;19;20002;-65
2022/08/07 02:10:07;;;;;;;0.70;0.60;;;;;;;;;;7393426;19;19998;-62
2022/08/07 02:12:37;;;;;;;0.40;0.40;;;;;;;;;;7391354;19;20010;-62
2022/08/07 02:15:03;;;;;;;0.30;0.30;;;;;;;;;;7391747;19;20377;-64
2022/08/07 02:17:29;;;;;;;0.63;0.60;;;;;;;;;;7390736;19;20011;-64
2022/08/07 02:19:56;;;;;;;0.52;0.52;;;;;;;;;;7391469;19;20023;-64
2022/08/07 02:22:23;;;;;;;0.38;0.38;;;;;;;;;;7393002;19;20006;-64
2022/08/07 02:24:51;;;;;;;0.40;0.40;;;;;;;;;;7390620;19;20362;-63
2022/08/07 02:27:20;;;;;;;0.52;0.52;;;;;;;;;;7390643;19;20500;-64
2022/08/07 02:29:48;;;;;;;11.35;0.70;;;;;;;;;;7392168;19;20507;-64
2022/08/07 02:32:15;;;;;;;0.88;0.43;;;;;;;;;;7391870;19;20002;-63
2022/08/07 02:34:42;;;;;;;0.40;0.40;;;;;;;;;;7392043;19;20021;-62
2022/08/07 02:37:08;;;;;;;0.35;0.35;;;;;;;;;;7394157;19;20019;-65
2022/08/07 02:39:39;;;;;;;0.40;0.40;;;;;;;;;;7389545;19;19995;-64
2022/08/07 02:42:06;;;;;;;2.00;0.65;;;;;;;;;;7389796;19;20023;-64
2022/08/07 02:44:35;;;;;;;0.47;0.47;;;;;;;;;;7386742;19;20062;-64
2022/08/07 02:47:04;;;;;;;1.33;0.93;;;;;;;;;;7386908;19;20021;-63
2022/08/07 02:49:29;;;;;;;0.30;0.30;;;;;;;;;;7387211;19;20008;-62
2022/08/07 02:51:57;;;;;;;2.10;0.70;;;;;;;;;;7387366;19;19998;-63
2022/08/07 02:54:26;;;;;;;0.38;0.38;;;;;;;;;;7387007;19;20330;-63
2022/08/07 02:56:53;;;;;;;1.65;0.60;;;;;;;;;;7386987;19;19999;-63
2022/08/07 02:59:23;;;;;;;0.50;0.50;;;;;;;;;;7387742;19;19999;-63
2022/08/07 03:01:48;;;;;;;1.52;0.65;;;;;;;;;;7390095;19;20006;-63
2022/08/07 03:04:15;;;;;;;0.70;0.50;;;;;;;;;;7389548;19;20338;-63
2022/08/07 03:06:42;;;;;;;0.70;0.52;;;;;;;;;;7392778;19;19998;-63
2022/08/07 03:09:08;;;;;;;2.05;0.55;;;;;;;;;;7389259;19;20007;-63
2022/08/07 03:11:36;;;;;;;0.60;0.60;;;;;;;;;;7388123;19;20002;-63
2022/08/07 03:14:04;;;;;;;0.93;0.63;;;;;;;;;;7390956;19;20003;-63
2022/08/07 03:16:31;;;;;;;0.30;0.30;;;;;;;;;;7388632;19;20002;-63
2022/08/07 03:18:58;;;;;;;0.47;0.47;;;;;;;;;;7393390;19;20003;-63
2022/08/07 03:21:24;;;;;;;0.63;0.52;;;;;;;;;;7388526;19;20020;-63
2022/08/07 03:23:53;;;;;;;0.57;0.50;;;;;;;;;;7391187;19;20002;-63
2022/08/07 03:26:21;;;;;;;1.13;0.60;;;;;;;;;;7388997;19;20016;-63
2022/08/07 03:28:48;;;;;;;0.50;0.50;;;;;;;;;;7389174;19;20010;-63
2022/08/07 03:31:19;;;;;;;0.50;0.50;;;;;;;;;;7390537;19;20324;-63
2022/08/07 03:33:51;;;;;;;0.85;0.45;;;;;;;;;;7388617;19;20002;-63
2022/08/07 03:36:19;;;;;;;0.50;0.50;;;;;;;;;;7388465;19;20030;-63
2022/08/07 03:38:46;;;;;;;1.02;0.77;;;;;;;;;;7390439;19;20006;-62
2022/08/07 03:41:13;;;;;;;0.57;0.43;;;;;;;;;;7388176;19;19998;-63
2022/08/07 03:43:39;;;;;;;0.57;0.57;;;;;;;;;;7390134;19;20026;-63
2022/08/07 03:46:05;;;;;;;0.38;0.38;;;;;;;;;;7388204;19;20058;-63
2022/08/07 03:48:32;;;;;;;0.93;0.90;;;;;;;;;;7389759;19;20006;-63
2022/08/07 03:50:59;;;;;;;0.52;0.50;;;;;;;;;;7388754;19;20003;-63
2022/08/07 03:53:25;;;;;;;0.57;0.57;;;;;;;;;;7390336;19;20023;-63
2022/08/07 03:55:52;;;;;;;0.52;0.52;;;;;;;;;;7388411;19;20600;-63
2022/08/07 03:58:20;;;;;;;0.73;0.50;;;;;;;;;;7389286;19;20468;-63
2022/08/07 04:00:51;;;;;;;0.88;0.52;;;;;;;;;;7386013;19;20014;-63
2022/08/07 04:03:17;;;;;;;0.70;0.57;;;;;;;;;;7387352;19;20468;-63
2022/08/07 04:05:42;;;;;;;0.40;0.40;;;;;;;;;;7387803;19;20006;-63
2022/08/07 04:08:10;;;;;;;0.52;0.52;;;;;;;;;;7393694;19;20092;-64
2022/08/07 04:10:36;;;;;;;0.50;0.50;;;;;;;;;;7388694;19;20345;-63
2022/08/07 04:13:03;;;;;;;0.70;0.70;;;;;;;;;;7387050;19;20005;-63
2022/08/07 04:15:28;;;;;;;0.50;0.50;;;;;;;;;;7387740;19;20007;-63
2022/08/07 04:17:54;;;;;;;0.60;0.60;;;;;;;;;;7388967;19;20085;-63
2022/08/07 04:20:20;;;;;;;0.47;0.47;;;;;;;;;;7388009;19;20010;-63
2022/08/07 04:22:48;;;;;;;0.40;0.40;;;;;;;;;;7386854;19;20003;-63
2022/08/07 04:25:14;;;;;;;2.63;0.85;;;;;;;;;;7387919;19;20023;-63
2022/08/07 04:27:40;;;;;;;0.45;0.45;;;;;;;;;;7386850;19;20006;-63
2022/08/07 04:30:09;;;;;;;0.88;0.47;;;;;;;;;;7388530;19;20010;-65
2022/08/07 04:32:35;;;;;;;0.77;0.47;;;;;;;;;;7385836;19;20058;-63
2022/08/07 04:35:03;;;;;;;0.50;0.50;;;;;;;;;;7387449;19;20342;-63
2022/08/07 04:37:30;;;;;;;0.55;0.50;;;;;;;;;;7390972;19;20002;-63
2022/08/07 04:39:55;;;;;;;2.45;0.90;;;;;;;;;;7388073;19;20078;-63
2022/08/07 04:42:27;;;;;;;0.30;0.30;;;;;;;;;;7384035;19;20089;-64
2022/08/07 04:44:54;;;;;;;0.38;0.38;;;;;;;;;;7386473;19;20002;-63
2022/08/07 04:47:47;;;;;;;1.27;0.60;;;;;;;;;;7386104;19;20035;-63
2022/08/07 04:50:34;;;;;;;0.45;0.45;;;;;;;;;;7386234;19;20419;-64
2022/08/07 04:53:11;;;;;;;0.45;0.35;;;;;;;;;;7387995;19;20539;-65
2022/08/07 04:56:08;;;;;;;0.43;0.43;;;;;;;;;;7386775;19;20006;-64
2022/08/07 04:58:46;;;;;;;0.40;0.40;;;;;;;;;;7386974;19;19995;-63
2022/08/07 05:01:15;;;;;;;0.52;0.47;;;;;;;;;;7385583;19;20009;-63
2022/08/07 05:03:48;;;;;;;0.20;0.20;;;;;;;;;;7386022;19;20037;-63
2022/08/07 05:06:22;;;;;;;0.73;0.55;;;;;;;;;;7386860;19;19999;-63
2022/08/07 05:09:02;;;;;;;0.40;0.40;;;;;;;;;;7387737;19;20007;-63
2022/08/07 05:11:34;;;;;;;0.40;0.40;;;;;;;;;;7387164;19;19998;-63
2022/08/07 05:14:10;;;;;;;0.30;0.30;;;;;;;;;;7388010;19;20007;-63
2022/08/07 05:16:38;;;;;;;0.32;0.32;;;;;;;;;;7387908;19;19999;-63
2022/08/07 05:19:09;;;;;;;0.57;0.57;;;;;;;;;;7385697;19;19994;-63
2022/08/07 05:21:35;;;;;;;1.33;0.57;;;;;;;;;;7384855;19;20003;-63
2022/08/07 05:24:03;;;;;;;0.85;0.80;;;;;;;;;;7389829;19;19999;-63
2022/08/07 05:26:31;;;;;;;0.32;0.32;;;;;;;;;;7383154;19;20006;-64
2022/08/07 05:29:00;;;;;;;0.70;0.70;;;;;;;;;;7388039;19;20036;-64
2022/08/07 05:31:33;;;;;;;1.25;0.70;;;;;;;;;;7386613;19;20014;-65
2022/08/07 05:34:00;;;;;;;0.52;0.52;;;;;;;;;;7391714;19;20022;-65
2022/08/07 05:36:27;;;;;;;0.50;0.50;;;;;;;;;;7389517;19;20022;-63
2022/08/07 05:38:54;;;;;;;0.45;0.45;;;;;;;;;;7394588;19;20452;-65
2022/08/07 05:41:20;;;;;;;0.60;0.60;;;;;;;;;;7390999;19;20043;-65
2022/08/07 05:43:49;;;;;;;0.30;0.30;;;;;;;;;;7391684;19;20464;-64
2022/08/07 05:46:22;;;;;;;0.45;0.45;;;;;;;;;;7395105;19;20311;-63
2022/08/07 05:48:49;;;;;;;0.50;0.50;;;;;;;;;;7391758;19;20005;-63
2022/08/07 05:51:16;;;;;;;0.30;0.30;;;;;;;;;;7393169;19;20002;-63
2022/08/07 05:53:42;;;;;;;0.50;0.50;;;;;;;;;;7393825;19;20460;-64
2022/08/07 05:56:08;;;;;;;0.50;0.50;;;;;;;;;;7390844;19;20025;-63
2022/08/07 05:58:37;;;;;;;4.18;0.80;;;;;;;;;;7394413;19;20007;-63
2022/08/07 06:01:04;;;;;;;0.52;0.52;;;;;;;;;;7389263;19;19999;-63
2022/08/07 06:03:32;;;;;;;3.95;0.77;;;;;;;;;;7398174;19;20006;-67
2022/08/07 06:05:58;;;;;;;0.70;0.70;;;;;;;;;;7389000;19;20002;-67
2022/08/07 06:08:25;;;;;;;0.52;0.52;;;;;;;;;;7391021;19;20002;-69
2022/08/07 06:10:51;;;;;;;0.52;0.52;;;;;;;;;;7388728;19;20030;-67
2022/08/07 06:13:17;;;;;;;0.80;0.73;;;;;;;;;;7388145;19;20040;-68
2022/08/07 06:15:44;;;;;;;0.40;0.40;;;;;;;;;;7386807;19;20011;-69
2022/08/07 06:18:12;;;;;;;0.82;0.80;;;;;;;;;;7386709;19;20484;-70
2022/08/07 06:20:39;;;;;;;0.52;0.52;;;;;;;;;;7386585;19;20022;-69
2022/08/07 06:23:07;;;;;;;0.55;0.55;;;;;;;;;;7391957;19;20372;-69
2022/08/07 06:25:33;;;;;;;0.50;0.50;;;;;;;;;;7390691;19;20394;-67
2022/08/07 06:28:09;;;;;;;0.55;0.55;;;;;;;;;;7392127;19;20058;-68
2022/08/07 06:30:36;;;;;;;0.50;0.50;;;;;;;;;;7391700;19;20012;-67
2022/08/07 06:33:03;;;;;;;0.70;0.70;;;;;;;;;;7392069;19;19998;-68
2022/08/07 06:35:28;;;;;;;0.50;0.50;;;;;;;;;;7390430;19;20002;-68
2022/08/07 06:37:55;;;;;;;0.50;0.50;;;;;;;;;;7391766;19;19994;-68
2022/08/07 06:40:24;;;;;;;0.50;0.50;;;;;;;;;;7389655;19;20009;-68
2022/08/07 06:42:50;;;;;;;0.50;0.50;;;;;;;;;;7391972;19;20032;-68
2022/08/07 06:45:20;;;;;;;0.50;0.50;;;;;;;;;;7389617;19;20011;-68
2022/08/07 06:47:46;;;;;;;0.53;0.53;;;;;;;;;;7396432;19;20030;-68
2022/08/07 06:50:12;;;;;;;0.40;0.40;;;;;;;;;;7390356;19;20061;-68
2022/08/07 06:52:49;;;;;;;0.40;0.40;;;;;;;;;;7391554;19;20010;-68
2022/08/07 06:55:34;;;;;;;1.48;0.40;;;;;;;;;;7391111;19;20037;-68
2022/08/07 06:58:02;;;;;;;1.80;0.68;;;;;;;;;;7391998;19;20376;-68
2022/08/07 07:00:36;;;;;;;0.45;0.45;;;;;;;;;;7390020;19;20479;-68
2022/08/07 07:03:02;;;;;;;1.15;0.57;;;;;;;;;;7393718;19;20081;-68
2022/08/07 07:05:28;;;;;;;0.85;0.50;;;;;;;;;;7394977;19;20436;-68
2022/08/07 07:07:54;;;;;;;0.28;0.28;;;;;;;;;;7393563;19;20452;-68
2022/08/07 07:10:32;;;;;;;16.33;8.32;;;;;;;;;;7393756;19;20313;-68
2022/08/07 07:13:13;;;;;;;5.68;2.38;;;;;;;;;;7395224;19;20063;-69
2022/08/07 07:15:44;;;;;;;4.22;1.77;;;;;;;;;;7389733;19;20003;-69
2022/08/07 07:18:18;;;;;;;6.93;2.72;;;;;;;;;;7389591;19;20018;-72
2022/08/07 07:20:48;;;;;;;0.52;0.52;;;;;;;;;;7387289;19;20329;-70
2022/08/07 07:23:14;;;;;;;2.00;1.00;;;;;;;;;;7390526;19;20018;-71
2022/08/07 07:25:42;;;;;;;0.77;0.52;;;;;;;;;;7389075;19;20307;-70
2022/08/07 07:28:26;;;;;;;0.40;0.40;;;;;;;;;;7390201;19;20013;-72
2022/08/07 07:30:59;;;;;;;0.40;0.40;;;;;;;;;;7394141;19;20460;-72
2022/08/07 07:33:27;;;;;;;0.50;0.50;;;;;;;;;;7391472;19;20456;-70
2022/08/07 07:35:54;;;;;;;0.50;0.50;;;;;;;;;;7390580;19;20026;-73
2022/08/07 07:38:22;;;;;;;0.43;0.43;;;;;;;;;;7393378;19;19999;-72
2022/08/07 07:40:48;;;;;;;0.50;0.50;;;;;;;;;;7386866;19;20003;-74
2022/08/07 07:43:15;;;;;;;0.75;0.43;;;;;;;;;;7391625;19;20098;-71
2022/08/07 07:45:44;;;;;;;2.03;0.77;;;;;;;;;;7391914;19;20021;-69
2022/08/07 07:48:13;;;;;;;1.10;0.50;;;;;;;;;;7391536;19;20026;-70
2022/08/07 07:50:39;;;;;;;0.68;0.68;;;;;;;;;;7392866;19;20018;-70
2022/08/07 07:53:06;;;;;;;0.40;0.40;;;;;;;;;;7389978;19;20003;-68
2022/08/07 07:55:33;;;;;;;0.55;0.55;;;;;;;;;;7387636;19;20059;-67
2022/08/07 07:57:59;;;;;;;0.57;0.57;;;;;;;;;;7388834;19;20001;-70
2022/08/07 08:00:27;;;;;;;1.13;0.70;;;;;;;;;;7390353;19;20392;-69
2022/08/07 08:02:55;;;;;;;0.50;0.50;;;;;;;;;;7390417;19;20484;-68
2022/08/07 08:05:22;;;;;;;0.40;0.40;;;;;;;;;;7392136;19;20069;-69
2022/08/07 08:07:48;;;;;;;0.40;0.40;;;;;;;;;;7392870;19;20006;-69
2022/08/07 08:10:15;;;;;;;2.03;0.85;;;;;;;;;;7389988;19;20345;-69
2022/08/07 08:12:42;;;;;;;1.05;0.55;;;;;;;;;;7384166;19;20468;-69
2022/08/07 08:15:08;;;;;;;0.40;0.40;;;;;;;;;;7387321;19;20078;-69
2022/08/07 08:17:34;;;;;;;1.10;0.70;;;;;;;;;;7382374;19;20476;-68
2022/08/07 08:20:06;;;;;;;0.60;0.60;;;;;;;;;;7386288;19;20006;-68
2022/08/07 08:28:15;;;;;;;0.45;0.32;;;;;;;;;;7388446;19;20035;-69
2022/08/07 08:30:43;;;;;;;0.50;0.50;;;;;;;;;;7385504;19;20003;-69
2022/08/07 08:33:15;;;;;;;0.43;0.43;;;;;;;;;;7386894;19;20506;-68
2022/08/07 08:35:42;;;;;;;0.57;0.50;;;;;;;;;;7386785;19;20006;-68
2022/08/07 08:38:10;;;;;;;0.60;0.57;;;;;;;;;;7385330;19;19999;-69
2022/08/07 08:40:40;;;;;;;0.63;0.60;;;;;;;;;;7387034;19;19999;-69
2022/08/07 08:43:09;;;;;;;;;;;;;;;;;;7390043;19;20006;-69
2022/08/07 08:45:45;;;;;;;0.50;0.50;;;;;;;;;;7385497;19;19918;-69
2022/08/07 08:48:31;;;;;;;0.80;0.80;;;;;;;;;;7388289;19;19999;-69
2022/08/07 08:51:06;;;;;;;0.60;0.60;;;;;;;;;;7391494;19;19999;-68
2022/08/07 08:53:55;;;;;;;0.60;0.60;;;;;;;;;;7390111;19;20031;-69
2022/08/07 08:56:24;;;;;;;0.88;0.57;;;;;;;;;;7386403;19;20476;-69
2022/08/07 08:59:08;;;;;;;0.50;0.50;;;;;;;;;;7386665;19;19997;-69
2022/08/07 09:01:47;;;;;;;0.47;0.47;;;;;;;;;;7384179;19;20003;-68
2022/08/07 09:04:30;;;;;;;0.45;0.45;;;;;;;;;;7387669;19;20019;-68
2022/08/07 09:07:29;;;;;;;0.50;0.50;;;;;;;;;;7390106;19;20496;-68
2022/08/07 09:10:24;;;;;;;0.40;0.40;;;;;;;;;;7395464;19;20002;-68
2022/08/07 09:13:14;;;;;;;0.47;0.47;;;;;;;;;;7394206;19;19998;-68
2022/08/07 09:16:02;;;;;;;0.70;0.65;;;;;;;;;;7392950;19;20006;-67
2022/08/07 09:19:05;;;;;;;0.52;0.52;;;;;;;;;;7393061;19;20488;-67
2022/08/07 09:21:30;;;;;;;0.70;0.70;;;;;;;;;;7391746;19;20015;-68
2022/08/07 09:24:21;;;;;;;0.70;0.70;;;;;;;;;;7394905;19;20003;-68
2022/08/07 09:27:01;;;;;;;0.50;0.50;;;;;;;;;;7392817;19;20400;-68
2022/08/07 09:29:49;;;;;;;1.15;0.82;;;;;;;;;;7394683;19;20346;-68
2022/08/07 09:32:28;;;;;;;0.93;0.80;;;;;;;;;;7392833;19;20018;-68
2022/08/07 09:35:26;;;;;;;0.70;0.70;;;;;;;;;;7396193;19;20009;-69
2022/08/07 09:38:06;;;;;;;0.85;0.85;;;;;;;;;;7390649;19;20570;-68
2022/08/07 09:40:41;;;;;;;;;;;;;;;;;;7389510;19;20444;-69
2022/08/07 09:43:13;;;;;;;0.70;0.70;;;;;;;;;;7389618;19;19926;-69
2022/08/07 09:46:28;;;;;;;0.60;0.60;;;;;;;;;;7388351;19;20040;-69
2022/08/07 09:49:29;;;;;;;0.57;0.57;;;;;;;;;;7387939;19;20003;-68
2022/08/07 09:52:10;;;;;;;0.63;0.63;;;;;;;;;;7390603;19;20421;-68
2022/08/07 09:54:45;;;;;;;0.73;0.73;;;;;;;;;;7391087;19;20007;-70
2022/08/07 09:57:45;;;;;;;0.73;0.73;;;;;;;;;;7391951;19;20002;-70
2022/08/07 10:00:13;;;;;;;3.05;2.10;;;;;;;;;;7392479;19;20067;-69
2022/08/07 10:02:57;;;;;;;1.70;0.90;;;;;;;;;;7393295;19;20086;-73
2022/08/07 10:05:45;;;;;;;0.75;0.75;;;;;;;;;;7392646;19;20017;-68
2022/08/07 10:08:38;;;;;;;0.73;0.73;;;;;;;;;;7391958;19;20011;-68
2022/08/07 10:11:31;;;;;;;1.65;0.93;;;;;;;;;;7392686;19;20030;-68
2022/08/07 10:14:02;;;;;;;1.15;0.73;;;;;;;;;;7393252;19;20009;-70
2022/08/07 10:16:58;;;;;;;1.95;0.82;;;;;;;;;;7388806;19;20670;-70
2022/08/07 10:19:29;;;;;;;0.90;0.90;;;;;;;;;;7390894;19;20692;-67
2022/08/07 10:22:09;;;;;;;0.70;0.70;;;;;;;;;;7392003;19;20039;-70
2022/08/07 10:24:53;;;;;;;;;;;;;;;;;;7390110;19;20069;-67
2022/08/07 10:27:44;;;;;;;0.80;0.80;;;;;;;;;;7391156;19;19982;-68
2022/08/07 10:30:31;;;;;;;1.10;1.00;;;;;;;;;;7388567;19;20672;-68
2022/08/07 10:33:20;;;;;;;0.80;0.80;;;;;;;;;;7391310;19;20018;-69
2022/08/07 10:35:58;;;;;;;0.75;0.75;;;;;;;;;;7388143;19;20349;-69
2022/08/07 10:38:29;;;;;;;0.80;0.80;;;;;;;;;;7384022;19;20034;-69
2022/08/07 10:41:08;;;;;;;1.17;1.08;;;;;;;;;;7387420;19;19994;-69
2022/08/07 10:43:41;;;;;;;0.90;0.90;;;;;;;;;;7386196;19;20010;-68
2022/08/07 10:46:14;;;;;;;0.60;0.60;;;;;;;;;;7385753;19;20552;-69
2022/08/07 10:49:03;;;;;;;0.80;0.80;;;;;;;;;;7388489;19;20486;-69
2022/08/07 10:51:37;;;;;;;0.80;0.80;;;;;;;;;;7387496;19;20009;-69
2022/08/07 10:54:19;;;;;;;0.70;0.70;;;;;;;;;;7388117;19;20021;-70
2022/08/07 10:57:14;;;;;;;1.70;1.00;;;;;;;;;;7393468;19;20018;-69
2022/08/07 10:59:52;;;;;;;0.60;0.60;;;;;;;;;;7387456;19;20023;-69
2022/08/07 11:02:27;;;;;;;1.23;0.60;;;;;;;;;;7388111;19;20546;-69
2022/08/07 11:05:12;;;;;;;0.80;0.80;;;;;;;;;;7386246;19;20047;-69
2022/08/07 11:08:03;;;;;;;1.08;0.75;;;;;;;;;;7384182;19;20006;-68
2022/08/07 11:10:38;;;;;;;4.43;2.35;;;;;;;;;;7388091;19;20476;-69
2022/08/07 11:13:14;;;;;;;0.90;0.88;;;;;;;;;;7386741;19;20006;-70
2022/08/07 11:15:44;;;;;;;0.90;0.90;;;;;;;;;;7387163;19;20018;-68
2022/08/07 11:18:18;;;;;;;0.93;0.80;;;;;;;;;;7388700;19;20019;-69
2022/08/07 11:21:01;;;;;;;0.88;0.88;;;;;;;;;;7388715;19;20278;-69
2022/08/07 11:23:44;;;;;;;1.65;0.88;;;;;;;;;;7386794;19;20010;-68
2022/08/07 11:26:19;;;;;;;0.80;0.80;;;;;;;;;;7387782;19;20010;-68
2022/08/07 11:28:51;;;;;;;0.75;0.75;;;;;;;;;;7393553;19;19994;-70
2022/08/07 11:31:52;;;;;;;1.02;0.85;;;;;;;;;;7392445;19;20088;-70
2022/08/07 11:34:49;;;;;;;0.77;0.75;;;;;;;;;;7393586;19;20014;-68
2022/08/07 11:37:18;;;;;;;0.82;0.82;;;;;;;;;;7389701;19;20018;-68
2022/08/07 11:39:57;;;;;;;0.60;0.60;;;;;;;;;;7393714;19;20010;-64
2022/08/07 11:42:37;;;;;;;1.25;1.00;;;;;;;;;;7388015;19;20411;-65
2022/08/07 11:45:12;;;;;;;0.60;0.60;;;;;;;;;;7387545;19;20006;-65
2022/08/07 11:47:52;;;;;;;0.70;0.70;;;;;;;;;;7389417;19;20023;-64
2022/08/07 11:50:42;;;;;;;1.08;0.85;;;;;;;;;;7384131;19;20002;-65
2022/08/07 11:53:12;;;;;;;0.80;0.80;;;;;;;;;;7375884;19;20010;-66
2022/08/07 11:55:47;;;;;;;;;;;;;;;;;;7382191;19;20003;-65
2022/08/07 11:58:29;;;;;;;0.75;0.75;;;;;;;;;;7379949;19;19929;-65
2022/08/07 12:01:07;;;;;;;0.73;0.70;;;;;;;;;;7380596;19;20061;-66
2022/08/07 12:04:01;;;;;;;2.00;1.50;;;;;;;;;;7382437;19;20002;-66
2022/08/07 12:06:51;;;;;;;0.88;0.82;;;;;;;;;;7385662;19;20007;-67
2022/08/07 12:09:36;;;;;;;0.88;0.85;;;;;;;;;;7385075;19;20019;-65
2022/08/07 12:12:11;;;;;;;0.77;0.77;;;;;;;;;;7388301;19;20008;-65
2022/08/07 12:15:04;;;;;;;0.90;0.88;;;;;;;;;;7385577;19;20768;-66
2022/08/07 12:17:40;;;;;;;1.50;1.00;;;;;;;;;;7384398;19;20014;-65
2022/08/07 12:20:21;;;;;;;0.70;0.70;;;;;;;;;;7386606;19;19999;-66
2022/08/07 12:23:08;;;;;;;0.82;0.82;;;;;;;;;;7386723;19;20021;-66
2022/08/07 12:25:56;;;;;;;0.90;0.90;;;;;;;;;;7384428;19;20448;-66
2022/08/07 12:28:24;;;;;;;1.35;0.90;;;;;;;;;;7384618;19;20011;-66
2022/08/07 12:30:54;;;;;;;1.55;0.90;;;;;;;;;;7388413;19;20011;-66
2022/08/07 12:33:24;;;;;;;1.15;0.90;;;;;;;;;;7384491;19;19999;-66
2022/08/07 12:35:51;;;;;;;0.98;0.80;;;;;;;;;;7383582;19;20010;-68
2022/08/07 12:38:18;;;;;;;3.35;2.13;;;;;;;;;;7383016;19;20037;-66
2022/08/07 12:40:46;;;;;;;1.02;0.95;;;;;;;;;;7382678;19;20416;-66
2022/08/07 12:43:15;;;;;;;0.70;0.70;;;;;;;;;;7383278;19;20086;-67
2022/08/07 12:45:54;;;;;;;0.80;0.80;;;;;;;;;;7385416;19;20360;-66
2022/08/07 12:48:47;;;;;;;0.60;0.60;;;;;;;;;;7386708;19;19998;-66
2022/08/07 12:51:17;;;;;;;1.08;0.90;;;;;;;;;;7380584;19;20006;-66
2022/08/07 12:53:54;;;;;;;0.63;0.63;;;;;;;;;;7387726;19;20387;-66
2022/08/07 12:56:30;;;;;;;0.80;0.80;;;;;;;;;;7381903;19;20008;-67
2022/08/07 12:58:58;;;;;;;3.35;0.82;;;;;;;;;;7386898;19;20007;-67
2022/08/07 13:01:49;;;;;;;0.63;0.63;;;;;;;;;;7381432;19;20002;-67
2022/08/07 13:04:44;;;;;;;1.40;0.80;;;;;;;;;;7385292;19;20015;-66
2022/08/07 13:07:49;;;;;;;1.55;0.60;;;;;;;;;;7382313;19;20025;-66
2022/08/07 13:10:24;;;;;;;0.55;0.55;;;;;;;;;;7385625;19;20017;-65
2022/08/07 13:13:07;;;;;;;1.40;0.90;;;;;;;;;;7386577;19;20649;-67
2022/08/07 13:15:46;;;;;;;0.52;0.52;;;;;;;;;;7383042;19;19998;-67
2022/08/07 13:18:19;;;;;;;0.70;0.70;;;;;;;;;;7382825;19;20348;-66
2022/08/07 13:21:14;;;;;;;0.50;0.50;;;;;;;;;;7385034;19;20348;-66
2022/08/07 13:24:06;;;;;;;0.60;0.60;;;;;;;;;;7382427;19;20417;-67
2022/08/07 13:26:40;;;;;;;0.85;0.85;;;;;;;;;;7383232;19;20015;-65
2022/08/07 13:29:32;;;;;;;0.60;0.60;;;;;;;;;;7385416;19;20007;-66
2022/08/07 13:32:17;;;;;;;0.60;0.60;;;;;;;;;;7385841;19;20010;-66
2022/08/07 13:34:55;;;;;;;0.65;0.57;;;;;;;;;;7386662;19;20006;-65
2022/08/07 13:37:30;;;;;;;0.63;0.63;;;;;;;;;;7386844;19;20014;-65
2022/08/07 13:40:02;;;;;;;1.73;0.73;;;;;;;;;;7378637;19;20006;-65
2022/08/07 13:42:30;;;;;;;0.70;0.70;;;;;;;;;;7380756;19;20211;-65
2022/08/07 13:45:00;;;;;;;0.43;0.43;;;;;;;;;;7378872;19;20017;-66
2022/08/07 13:47:27;;;;;;;0.93;0.90;;;;;;;;;;7381584;19;20073;-65
2022/08/07 13:49:58;;;;;;;0.50;0.50;;;;;;;;;;7382354;19;19994;-65
2022/08/07 13:52:25;;;;;;;0.40;0.40;;;;;;;;;;7379580;19;20002;-65
2022/08/07 13:54:54;;;;;;;0.85;0.47;;;;;;;;;;7389950;19;20012;-65
2022/08/07 13:57:24;;;;;;;0.70;0.70;;;;;;;;;;7389414;19;19999;-65
2022/08/07 13:59:54;;;;;;;;;;;;;;;;;;7392451;19;20005;-65
2022/08/07 14:02:27;;;;;;;0.60;0.60;;;;;;;;;;7391709;19;19918;-65
2022/08/07 14:05:00;;;;;;;0.70;0.70;;;;;;;;;;7393312;19;20058;-64
2022/08/07 14:07:29;;;;;;;0.65;0.60;;;;;;;;;;7396828;19;19999;-65
2022/08/07 14:09:57;;;;;;;0.60;0.60;;;;;;;;;;7393760;19;20542;-65
2022/08/07 14:12:47;;;;;;;0.70;0.70;;;;;;;;;;7392850;19;20562;-65
2022/08/07 14:15:37;;;;;;;0.50;0.50;;;;;;;;;;7392511;19;19995;-65
2022/08/07 14:18:09;;;;;;;0.63;0.52;;;;;;;;;;7391640;19;20549;-65
2022/08/07 14:20:40;;;;;;;0.50;0.47;;;;;;;;;;7392000;19;19998;-66
2022/08/07 14:23:14;;;;;;;0.73;0.55;;;;;;;;;;7392321;19;19998;-65
2022/08/07 14:25:42;;;;;;;0.50;0.50;;;;;;;;;;7392089;19;20019;-65
2022/08/07 14:28:10;;;;;;;0.70;0.70;;;;;;;;;;7392784;19;20035;-67
2022/08/07 14:30:37;;;;;;;0.60;0.60;;;;;;;;;;7391201;19;20019;-65
2022/08/07 14:33:04;;;;;;;0.60;0.60;;;;;;;;;;7391469;19;20005;-65
2022/08/07 14:35:32;;;;;;;0.43;0.43;;;;;;;;;;7389219;19;20026;-65
2022/08/07 14:37:59;;;;;;;0.52;0.52;;;;;;;;;;7391164;19;20384;-65
2022/08/07 14:40:28;;;;;;;0.68;0.50;;;;;;;;;;7389740;19;20032;-65
2022/08/07 14:43:11;;;;;;;0.40;0.40;;;;;;;;;;7391130;19;20058;-65
2022/08/07 14:45:50;;;;;;;0.47;0.47;;;;;;;;;;7391450;19;20058;-65
2022/08/07 14:48:18;;;;;;;0.77;0.77;;;;;;;;;;7392715;19;20326;-64
2022/08/07 14:50:49;;;;;;;0.40;0.40;;;;;;;;;;7391093;19;19998;-66
2022/08/07 14:53:16;;;;;;;0.63;0.63;;;;;;;;;;7390828;19;20023;-65
2022/08/07 14:55:43;;;;;;;0.50;0.50;;;;;;;;;;7390885;19;20069;-66
2022/08/07 14:58:11;;;;;;;0.75;0.50;;;;;;;;;;7391798;19;20022;-66
2022/08/07 15:00:39;;;;;;;0.30;0.30;;;;;;;;;;7391356;19;20356;-64
2022/08/07 15:03:07;;;;;;;0.82;0.68;;;;;;;;;;7389323;19;20374;-66
2022/08/07 15:05:34;;;;;;;0.47;0.47;;;;;;;;;;7394326;19;20037;-65
2022/08/07 15:08:05;;;;;;;0.55;0.52;;;;;;;;;;7394516;19;20013;-65
2022/08/07 15:10:31;;;;;;;0.50;0.50;;;;;;;;;;7392210;19;19998;-65
2022/08/07 15:13:02;;;;;;;0.88;0.40;;;;;;;;;;7390470;19;19999;-65
2022/08/07 15:15:39;;;;;;;0.70;0.68;;;;;;;;;;7388906;19;20010;-65
2022/08/07 15:18:19;;;;;;;0.90;0.60;;;;;;;;;;7391491;19;19995;-66
2022/08/07 15:20:46;;;;;;;0.45;0.43;;;;;;;;;;7390382;19;20029;-64
2022/08/07 15:23:18;;;;;;;0.30;0.30;;;;;;;;;;7390451;19;20015;-65